Time;durP1;ratioP1;P1;durP2;ratioP2;P2;SDS_P1;SDS_P2;PMS_P1;PMS_P2;Temp;Humidity;BMP_temperature;BMP_pressure;BME280_temperature;BME280_humidity;BME280_pressure;Samples;Min_cycle;Max_cycle;Signal;HPM_P1;HPM_P2
2021/12/02 00:03:59;;;;;;;;;;;5.60;99.90;;;;;;8325830;28;19987;-63
2021/12/02 00:08:00;;;;;;;;;;;5.70;99.90;;;;;;8326593;28;19913;-63
2021/12/02 00:12:01;;;;;;;;;;;5.80;99.90;;;;;;8326545;28;19947;-64
2021/12/02 00:16:16;;;;;;;;;;;5.80;99.90;;;;;;8326586;28;19909;-64
2021/12/02 00:24:37;;;;;;;;;;;5.80;99.90;;;;;;8326305;28;19936;-64
2021/12/02 00:28:38;;;;;;;;;;;5.80;99.90;;;;;;8330986;28;19967;-64
2021/12/02 00:32:42;;;;;;;;;;;5.80;99.90;;;;;;8332640;28;19964;-64
2021/12/02 00:36:43;;;;;;;;;;;5.80;99.90;;;;;;8332921;28;19909;-64
2021/12/02 00:40:43;;;;;;;;;;;5.70;99.90;;;;;;8332587;28;20376;-64
2021/12/02 00:44:44;;;;;;;;;;;5.80;99.90;;;;;;8332156;28;19949;-64
2021/12/02 00:48:45;;;;;;;;;;;5.80;99.90;;;;;;8332786;28;20292;-63
2021/12/02 00:52:49;;;;;;;;;;;5.80;99.90;;;;;;8332045;28;19972;-64
2021/12/02 00:56:50;;;;;;;;;;;5.80;99.90;;;;;;8331936;28;19909;-64
2021/12/02 01:00:52;;;;;;;;;;;5.70;99.90;;;;;;8331739;28;19909;-63
2021/12/02 01:04:53;;;;;;;;;;;5.70;99.90;;;;;;8331863;28;19996;-64
2021/12/02 01:08:53;;;;;;;;;;;5.60;99.90;;;;;;8332156;28;19917;-64
2021/12/02 01:12:55;;;;;;;;;;;5.50;99.90;;;;;;8331164;28;19940;-63
2021/12/02 01:16:56;;;;;;;;;;;5.40;99.90;;;;;;8331627;28;19909;-64
2021/12/02 01:20:57;;;;;;;;;;;5.40;99.90;;;;;;8331619;28;19916;-63
2021/12/02 01:24:58;;;;;;;;;;;5.40;99.90;;;;;;8330988;28;20330;-63
2021/12/02 01:28:59;;;;;;;;;;;5.40;99.90;;;;;;8331255;28;19931;-64
2021/12/02 01:33:01;;;;;;;;;;;5.40;99.90;;;;;;8331538;28;19913;-63
2021/12/02 01:37:01;;;;;;;;;;;5.40;99.90;;;;;;8331037;28;19924;-63
2021/12/02 01:41:03;;;;;;;;;;;5.40;99.90;;;;;;8329801;28;19916;-64
2021/12/02 01:45:04;;;;;;;;;;;5.30;99.90;;;;;;8329294;28;19913;-63
2021/12/02 01:49:05;;;;;;;;;;;5.20;99.90;;;;;;8329529;28;19916;-64
2021/12/02 01:53:06;;;;;;;;;;;5.20;99.90;;;;;;8329931;28;19916;-64
2021/12/02 01:57:09;;;;;;;;;;;5.10;99.90;;;;;;8328656;28;20505;-64
2021/12/02 02:01:13;;;;;;;;;;;5.10;99.90;;;;;;8328996;28;19913;-64
2021/12/02 02:05:14;;;;;;;;;;;5.10;99.90;;;;;;8330135;28;20375;-64
2021/12/02 02:09:15;;;;;;;;;;;5.10;99.90;;;;;;8328697;28;19917;-63
2021/12/02 02:13:17;;;;;;;;;;;5.10;99.90;;;;;;8329435;28;20383;-64
2021/12/02 02:17:27;;;;;;;;;;;5.00;99.90;;;;;;8329864;28;19917;-64
2021/12/02 02:21:28;;;;;;;;;;;5.00;99.90;;;;;;8329514;28;19913;-63
2021/12/02 02:25:29;;;;;;;;;;;5.00;99.90;;;;;;8327841;28;20502;-63
2021/12/02 02:29:30;;;;;;;;;;;5.00;99.90;;;;;;8329455;28;19963;-64
2021/12/02 02:33:37;;;;;;;;;;;4.90;99.90;;;;;;8329045;28;19909;-64
2021/12/02 02:37:38;;;;;;;;;;;4.90;99.90;;;;;;8329020;28;20342;-64
2021/12/02 02:42:08;;;;;;;;;;;4.90;99.90;;;;;;8327960;28;19909;-64
2021/12/02 02:46:09;;;;;;;;;;;4.90;99.90;;;;;;8324339;28;19949;-64
2021/12/02 02:50:14;;;;;;;;;;;4.90;99.90;;;;;;8327714;28;20303;-64
2021/12/02 02:54:16;;;;;;;;;;;4.90;99.90;;;;;;8328829;28;20291;-64
2021/12/02 02:58:29;;;;;;;;;;;4.90;99.90;;;;;;8328606;28;19909;-64
2021/12/02 03:02:40;;;;;;;;;;;4.90;99.90;;;;;;8327614;28;19916;-64
2021/12/02 03:06:55;;;;;;;;;;;4.90;99.90;;;;;;8343763;28;20375;-64
2021/12/02 03:10:57;;;;;;;;;;;4.80;99.90;;;;;;8327482;28;19955;-64
2021/12/02 03:19:01;;;;;;;;;;;4.90;99.90;;;;;;8328020;28;19913;-64
2021/12/02 03:23:02;;;;;;;;;;;4.70;99.90;;;;;;8327418;28;19996;-64
2021/12/02 03:27:03;;;;;;;;;;;4.60;99.90;;;;;;8327739;28;19920;-64
2021/12/02 03:31:03;;;;;;;;;;;4.50;99.90;;;;;;8327233;28;19909;-64
2021/12/02 03:35:05;;;;;;;;;;;4.60;99.90;;;;;;8326140;28;19917;-63
2021/12/02 03:39:07;;;;;;;;;;;4.50;99.90;;;;;;8326347;28;19909;-64
2021/12/02 03:43:08;;;;;;;;;;;4.50;99.90;;;;;;8326660;28;20275;-64
2021/12/02 03:47:09;;;;;;;;;;;4.50;99.90;;;;;;8326527;28;19913;-64
2021/12/02 03:51:10;;;;;;;;;;;4.50;99.90;;;;;;8326861;28;20302;-64
2021/12/02 03:55:10;;;;;;;;;;;4.50;99.90;;;;;;8327307;28;19916;-64
2021/12/02 03:59:12;;;;;;;;;;;4.50;99.90;;;;;;8325941;28;19935;-64
2021/12/02 04:03:13;;;;;;;;;;;4.50;99.90;;;;;;8331912;28;19954;-64
2021/12/02 04:07:16;;;;;;;;;;;4.50;99.90;;;;;;8337906;28;19924;-63
2021/12/02 04:11:42;;;;;;;;;;;4.40;99.90;;;;;;8336081;28;19917;-63
2021/12/02 04:15:49;;;;;;;;;;;4.30;99.90;;;;;;8336623;28;19920;-64
2021/12/02 04:19:50;;;;;;;;;;;4.40;99.90;;;;;;8336119;28;19962;-64
2021/12/02 04:23:50;;;;;;;;;;;4.30;99.90;;;;;;8337895;28;19909;-64
2021/12/02 04:27:51;;;;;;;;;;;4.40;99.90;;;;;;8337227;28;20008;-64
2021/12/02 04:31:52;;;;;;;;;;;4.40;99.90;;;;;;8353033;28;19913;-63
2021/12/02 04:35:53;;;;;;;;;;;4.40;99.90;;;;;;8337545;28;19920;-64
2021/12/02 04:39:53;;;;;;;;;;;4.30;99.90;;;;;;8336892;28;20399;-64
2021/12/02 04:43:54;;;;;;;;;;;4.10;99.90;;;;;;8339869;28;19925;-64
2021/12/02 04:47:54;;;;;;;;;;;4.00;99.90;;;;;;8348165;28;19924;-64
2021/12/02 04:51:55;;;;;;;;;;;3.90;99.90;;;;;;8343091;28;19919;-64
2021/12/02 04:55:55;;;;;;;;;;;3.90;99.90;;;;;;8336316;28;19909;-64
2021/12/02 04:59:55;;;;;;;;;;;3.80;99.90;;;;;;8336446;28;20401;-64
2021/12/02 05:03:56;;;;;;;;;;;3.70;99.90;;;;;;8335952;28;19905;-64
2021/12/02 05:07:59;;;;;;;;;;;3.60;99.90;;;;;;8335416;28;19923;-64
2021/12/02 05:11:59;;;;;;;;;;;3.50;99.90;;;;;;8333423;28;20260;-64
2021/12/02 05:16:00;;;;;;;;;;;3.50;99.90;;;;;;8329653;28;19917;-64
2021/12/02 05:20:00;;;;;;;;;;;3.40;99.90;;;;;;8330239;28;19917;-64
2021/12/02 05:24:01;;;;;;;;;;;3.30;99.90;;;;;;8330672;28;19921;-64
2021/12/02 05:28:01;;;;;;;;;;;3.40;99.90;;;;;;8330090;28;19964;-64
2021/12/02 05:32:02;;;;;;;;;;;3.30;99.90;;;;;;8328987;28;19968;-64
2021/12/02 05:36:02;;;;;;;;;;;3.20;99.90;;;;;;8329548;28;19917;-64
2021/12/02 05:40:03;;;;;;;;;;;3.30;99.90;;;;;;8329118;28;19917;-64
2021/12/02 05:44:04;;;;;;;;;;;3.20;99.90;;;;;;8329738;28;19959;-64
2021/12/02 05:48:04;;;;;;;;;;;3.10;99.90;;;;;;8328667;28;19925;-64
2021/12/02 05:52:05;;;;;;;;;;;3.20;99.90;;;;;;8328872;28;19913;-64
2021/12/02 05:56:06;;;;;;;;;;;3.20;99.90;;;;;;8328882;28;19909;-64
2021/12/02 06:00:07;;;;;;;;;;;3.10;99.90;;;;;;8328175;28;20055;-64
2021/12/02 06:04:09;;;;;;;;;;;3.10;99.90;;;;;;8328201;28;19923;-63
2021/12/02 06:08:09;;;;;;;;;;;3.00;99.90;;;;;;8330087;28;19913;-64
2021/12/02 06:12:10;;;;;;;;;;;2.90;99.90;;;;;;8328007;28;19971;-64
2021/12/02 06:16:10;;;;;;;;;;;2.90;99.90;;;;;;8328721;28;19964;-64
2021/12/02 06:20:12;;;;;;;;;;;2.90;99.90;;;;;;8328825;28;19920;-75
2021/12/02 06:24:14;;;;;;;;;;;3.00;99.90;;;;;;8326901;28;19944;-76
2021/12/02 06:28:15;;;;;;;;;;;3.00;99.90;;;;;;8332496;28;19917;-76
2021/12/02 06:32:16;;;;;;;;;;;3.10;99.90;;;;;;8327348;28;19921;-75
2021/12/02 06:36:16;;;;;;;;;;;3.10;99.90;;;;;;8295779;28;20438;-76
2021/12/02 06:40:17;;;;;;;;;;;3.20;99.90;;;;;;8294398;28;19924;-62
2021/12/02 06:44:17;;;;;;;;;;;3.30;99.90;;;;;;8301663;28;19913;-62
2021/12/02 06:48:18;;;;;;;;;;;3.30;99.90;;;;;;8319383;28;20277;-62
2021/12/02 06:52:18;;;;;;;;;;;3.30;99.90;;;;;;8324352;28;19917;-61
2021/12/02 06:56:19;;;;;;;;;;;3.30;99.90;;;;;;8328846;28;20446;-62
2021/12/02 07:00:20;;;;;;;;;;;3.30;99.90;;;;;;8344682;28;19916;-62
2021/12/02 07:04:21;;;;;;;;;;;3.40;99.90;;;;;;8343681;28;20156;-61
2021/12/02 07:08:22;;;;;;;;;;;3.50;99.90;;;;;;8343648;28;19917;-62
2021/12/02 07:12:29;;;;;;;;;;;3.40;99.90;;;;;;8343759;28;19920;-62
2021/12/02 07:16:29;;;;;;;;;;;3.50;99.90;;;;;;8343786;28;19909;-61
2021/12/02 07:20:33;;;;;;;;;;;3.60;99.90;;;;;;8312437;28;19936;-62
2021/12/02 07:24:34;;;;;;;;;;;3.60;99.90;;;;;;8322945;28;19959;-62
2021/12/02 07:28:36;;;;;;;;;;;3.80;99.90;;;;;;8319269;28;20383;-61
2021/12/02 07:32:39;;;;;;;;;;;3.90;99.90;;;;;;8318402;28;20287;-62
2021/12/02 07:36:40;;;;;;;;;;;4.00;99.90;;;;;;8326309;28;19913;-62
2021/12/02 07:40:41;;;;;;;;;;;4.10;99.90;;;;;;8322895;28;20107;-61
2021/12/02 07:44:41;;;;;;;;;;;4.20;99.90;;;;;;8325222;28;20360;-62
2021/12/02 07:48:42;;;;;;;;;;;4.20;99.90;;;;;;8326457;28;19917;-63
2021/12/02 07:52:45;;;;;;;;;;;4.30;99.90;;;;;;8323268;28;19909;-62
2021/12/02 07:56:46;;;;;;;;;;;4.20;99.90;;;;;;8326163;28;19913;-62
2021/12/02 08:00:46;;;;;;;;;;;4.20;99.90;;;;;;8320780;28;20658;-62
2021/12/02 08:04:47;;;;;;;;;;;4.20;99.90;;;;;;8323981;28;19913;-62
2021/12/02 08:08:47;;;;;;;;;;;4.40;99.90;;;;;;8326126;28;19940;-63
2021/12/02 08:12:50;;;;;;;;;;;4.40;99.90;;;;;;8325052;28;19917;-62
2021/12/02 08:16:50;;;;;;;;;;;4.30;99.90;;;;;;8326354;28;19940;-62
2021/12/02 08:20:51;;;;;;;;;;;4.40;99.90;;;;;;8327479;28;19913;-62
2021/12/02 08:24:51;;;;;;;;;;;4.50;99.90;;;;;;8320693;28;19917;-61
2021/12/02 08:28:52;;;;;;;;;;;4.50;99.90;;;;;;8293625;28;20280;-62
2021/12/02 08:32:58;;;;;;;;;;;4.60;99.90;;;;;;8307857;28;19913;-62
2021/12/02 08:36:58;;;;;;;;;;;4.50;99.90;;;;;;8341843;28;19913;-62
2021/12/02 08:40:59;;;;;;;;;;;4.40;99.90;;;;;;8299068;28;19940;-62
2021/12/02 08:45:01;;;;;;;;;;;4.40;99.90;;;;;;8328690;28;19917;-62
2021/12/02 08:49:01;;;;;;;;;;;4.50;99.90;;;;;;8326527;28;19920;-62
2021/12/02 08:53:03;;;;;;;;;;;4.40;99.90;;;;;;8330805;28;20530;-62
2021/12/02 08:57:03;;;;;;;;;;;4.50;99.90;;;;;;8328885;28;19917;-62
2021/12/02 09:01:04;;;;;;;;;;;4.50;99.90;;;;;;8333349;28;19975;-62
2021/12/02 09:05:05;;;;;;;;;;;4.60;99.90;;;;;;8331167;28;20088;-62
2021/12/02 09:09:06;;;;;;;;;;;4.70;99.90;;;;;;8330462;28;19914;-62
2021/12/02 09:13:10;;;;;;;;;;;4.70;99.90;;;;;;8329963;28;20395;-62
2021/12/02 09:17:10;;;;;;;;;;;5.00;99.90;;;;;;8328662;28;20303;-62
2021/12/02 09:21:11;;;;;;;;;;;5.20;99.90;;;;;;8328551;28;19920;-62
2021/12/02 09:25:13;;;;;;;;;;;5.20;99.90;;;;;;8328178;28;19917;-63
2021/12/02 09:29:14;;;;;;;;;;;5.40;99.90;;;;;;8300251;28;19920;-62
2021/12/02 09:33:15;;;;;;;;;;;5.70;99.90;;;;;;8317965;28;19913;-62
2021/12/02 09:37:15;;;;;;;;;;;5.90;99.90;;;;;;8310644;28;19909;-63
2021/12/02 09:41:16;;;;;;;;;;;5.80;99.90;;;;;;8330549;28;19920;-62
2021/12/02 09:45:16;;;;;;;;;;;5.60;99.90;;;;;;8344178;28;20253;-62
2021/12/02 09:49:17;;;;;;;;;;;5.60;99.90;;;;;;8344665;28;20292;-62
2021/12/02 09:53:21;;;;;;;;;;;5.50;99.90;;;;;;8339008;28;19943;-62
2021/12/02 09:57:26;;;;;;;;;;;5.50;99.90;;;;;;8341226;28;20169;-62
2021/12/02 10:01:38;;;;;;;;;;;5.40;99.90;;;;;;8343727;28;20341;-62
2021/12/02 10:05:44;;;;;;;;;;;5.30;99.90;;;;;;8344667;28;19917;-62
2021/12/02 10:10:28;;;;;;;;;;;5.40;99.90;;;;;;8245316;28;1736389;-62
2021/12/02 10:14:23;;;;;;;;;;;5.50;99.90;;;;;;8329415;28;19932;-62
2021/12/02 10:18:33;;;;;;;;;;;5.60;99.90;;;;;;8313103;28;19914;-62
2021/12/02 10:22:34;;;;;;;;;;;5.70;99.90;;;;;;8327716;28;19914;-62
2021/12/02 10:26:36;;;;;;;;;;;5.50;99.90;;;;;;8324389;28;19924;-61
2021/12/02 10:30:44;;;;;;;;;;;5.50;99.90;;;;;;8317509;28;19919;-62
2021/12/02 10:34:52;;;;;;;;;;;5.60;99.90;;;;;;8328684;28;20368;-62
2021/12/02 10:38:54;;;;;;;;;;;5.70;99.90;;;;;;8327584;28;19920;-62
2021/12/02 10:43:04;;;;;;;;;;;5.70;99.90;;;;;;8326947;28;19917;-62
2021/12/02 10:47:05;;;;;;;;;;;5.90;99.90;;;;;;8313909;28;20032;-61
2021/12/02 10:51:06;;;;;;;;;;;5.90;99.90;;;;;;8323489;28;19953;-62
2021/12/02 10:55:08;;;;;;;;;;;5.70;99.90;;;;;;8324503;28;19956;-62
2021/12/02 10:59:47;;;;;;;;;;;5.60;99.90;;;;;;8322822;28;20298;-61
2021/12/02 11:40:55;;;;;;;;;;;5.70;99.90;;;;;;8326640;28;20138;-62
2021/12/02 11:54:12;;;;;;;;;;;6.10;99.90;;;;;;8320840;28;19936;-62
2021/12/02 11:58:12;;;;;;;;;;;6.20;99.90;;;;;;8332345;28;19917;-61
2021/12/02 12:02:16;;;;;;;;;;;6.20;99.90;;;;;;8336562;28;19921;-60
2021/12/02 12:06:30;;;;;;;;;;;5.90;99.90;;;;;;8322032;28;19918;-60
2021/12/02 12:10:32;;;;;;;;;;;5.80;99.90;;;;;;8294328;28;20004;-59
2021/12/02 12:14:34;;;;;;;;;;;5.80;99.90;;;;;;8303946;28;20039;-61
2021/12/02 12:18:37;;;;;;;;;;;5.70;99.90;;;;;;8295341;28;19910;-61
2021/12/02 12:22:39;;;;;;;;;;;5.70;99.90;;;;;;8296391;28;20304;-61
2021/12/02 12:26:42;;;;;;;;;;;5.70;99.90;;;;;;8331948;28;19920;-61
2021/12/02 12:30:43;;;;;;;;;;;5.90;99.90;;;;;;8332149;28;19920;-59
2021/12/02 12:34:58;;;;;;;;;;;5.80;99.90;;;;;;8333051;28;20363;-61
2021/12/02 12:39:19;;;;;;;;;;;5.70;99.90;;;;;;8332734;28;19909;-61
2021/12/02 12:43:44;;;;;;;;;;;5.50;99.90;;;;;;8328902;28;19952;-61
2021/12/02 12:47:45;;;;;;;;;;;5.30;99.90;;;;;;8324735;28;19921;-61
2021/12/02 12:51:50;;;;;;;;;;;5.10;99.90;;;;;;8331821;28;20004;-61
2021/12/02 12:55:52;;;;;;;;;;;5.20;99.90;;;;;;8332188;28;19910;-61
2021/12/02 12:59:55;;;;;;;;;;;5.40;99.90;;;;;;8332428;28;20433;-61
2021/12/02 13:04:24;;;;;;;;;;;5.30;99.90;;;;;;8332336;28;19910;-61
2021/12/02 13:08:26;;;;;;;;;;;4.40;99.90;;;;;;8330780;28;19913;-61
2021/12/02 13:12:47;;;;;;;;;;;3.70;99.90;;;;;;8331241;28;19925;-62
2021/12/02 13:16:48;;;;;;;;;;;3.10;99.90;;;;;;8329951;28;20314;-61
2021/12/02 13:20:48;;;;;;;;;;;2.90;99.90;;;;;;8330848;28;19963;-61
2021/12/02 13:24:49;;;;;;;;;;;2.80;99.90;;;;;;8331502;28;20073;-62
2021/12/02 13:28:50;;;;;;;;;;;2.60;99.90;;;;;;8329617;28;19913;-61
2021/12/02 13:32:50;;;;;;;;;;;2.50;99.90;;;;;;8345993;28;20398;-62
2021/12/02 13:36:51;;;;;;;;;;;2.40;99.90;;;;;;8328630;28;19909;-61
2021/12/02 13:40:51;;;;;;;;;;;2.30;99.90;;;;;;8330293;28;20339;-62
2021/12/02 13:44:53;;;;;;;;;;;2.00;99.90;;;;;;8330183;28;19928;-61
2021/12/02 13:48:54;;;;;;;;;;;1.90;99.90;;;;;;8329785;28;19939;-62
2021/12/02 13:52:59;;;;;;;;;;;1.90;99.90;;;;;;8330314;28;20357;-62
2021/12/02 13:57:00;;;;;;;;;;;1.90;99.90;;;;;;8330417;28;19909;-62
2021/12/02 14:01:02;;;;;;;;;;;1.90;99.90;;;;;;8345375;28;20003;-62
2021/12/02 14:05:05;;;;;;;;;;;1.90;99.90;;;;;;8328769;28;19920;-62
2021/12/02 14:09:12;;;;;;;;;;;1.90;99.90;;;;;;8330389;28;19913;-62
2021/12/02 14:13:17;;;;;;;;;;;2.00;99.90;;;;;;8329047;28;19921;-62
2021/12/02 14:17:17;;;;;;;;;;;2.10;99.90;;;;;;8328836;28;19910;-62
2021/12/02 14:21:19;;;;;;;;;;;2.10;99.90;;;;;;8329436;28;20292;-62
2021/12/02 14:25:20;;;;;;;;;;;2.10;99.90;;;;;;8329257;28;20330;-62
2021/12/02 14:29:21;;;;;;;;;;;2.00;99.90;;;;;;8328689;28;19913;-62
2021/12/02 14:33:35;;;;;;;;;;;2.00;99.90;;;;;;8328983;28;20011;-62
2021/12/02 14:37:36;;;;;;;;;;;2.00;99.90;;;;;;8327886;28;19936;-62
2021/12/02 14:41:40;;;;;;;;;;;2.00;99.90;;;;;;8328622;28;19944;-62
2021/12/02 14:45:41;;;;;;;;;;;2.10;99.90;;;;;;8328034;28;19939;-62
2021/12/02 14:49:44;;;;;;;;;;;2.00;99.90;;;;;;8328110;28;19967;-62
2021/12/02 14:53:46;;;;;;;;;;;2.00;99.90;;;;;;8327029;28;19944;-62
2021/12/02 14:57:47;;;;;;;;;;;2.00;99.90;;;;;;8324779;28;20255;-62
2021/12/02 15:02:06;;;;;;;;;;;1.90;99.90;;;;;;8327722;28;20188;-62
2021/12/02 15:06:06;;;;;;;;;;;2.20;99.90;;;;;;8327675;28;19913;-63
2021/12/02 15:10:07;;;;;;;;;;;2.20;99.90;;;;;;8327550;28;19913;-63
2021/12/02 15:14:07;;;;;;;;;;;2.00;99.90;;;;;;8326441;28;19909;-63
2021/12/02 15:18:08;;;;;;;;;;;2.20;99.90;;;;;;8326629;28;19924;-62
2021/12/02 15:22:28;;;;;;;;;;;2.40;99.90;;;;;;8325724;28;19909;-62
2021/12/02 15:26:29;;;;;;;;;;;2.50;99.90;;;;;;8322013;28;20363;-62
2021/12/02 15:30:31;;;;;;;;;;;2.30;99.90;;;;;;8327473;28;19948;-63
2021/12/02 15:34:31;;;;;;;;;;;2.30;99.90;;;;;;8343017;28;19968;-63
2021/12/02 15:38:34;;;;;;;;;;;1.90;99.90;;;;;;8326122;28;20425;-62
2021/12/02 15:42:36;;;;;;;;;;;1.80;99.90;;;;;;8328352;28;19913;-63
2021/12/02 15:46:40;;;;;;;;;;;1.60;99.90;;;;;;8329559;28;19971;-62
2021/12/02 15:50:41;;;;;;;;;;;1.70;99.90;;;;;;8326020;28;19967;-62
2021/12/02 15:54:43;;;;;;;;;;;1.80;99.90;;;;;;8326611;28;19909;-62
2021/12/02 15:58:43;;;;;;;;;;;1.90;99.90;;;;;;8324523;28;19956;-63
2021/12/02 16:02:57;;;;;;;;;;;2.00;99.90;;;;;;8328187;28;20379;-61
2021/12/02 16:15:04;;;;;;;;;;;2.00;99.90;;;;;;8342430;28;20421;-62
2021/12/02 16:19:05;;;;;;;;;;;1.80;99.90;;;;;;8349219;28;19916;-62
2021/12/02 16:23:05;;;;;;;;;;;2.10;99.90;;;;;;8319192;28;19917;-62
2021/12/02 16:27:06;;;;;;;;;;;2.00;99.90;;;;;;8312147;28;19913;-62
2021/12/02 16:31:07;;;;;;;;;;;1.90;99.90;;;;;;8321440;28;19917;-62
2021/12/02 16:35:09;;;;;;;;;;;1.90;99.90;;;;;;8322053;28;19975;-62
2021/12/02 16:39:19;;;;;;;;;;;2.00;99.90;;;;;;8332208;28;19917;-63
2021/12/02 16:43:20;;;;;;;;;;;1.80;99.90;;;;;;8350368;28;20295;-63
2021/12/02 16:47:21;;;;;;;;;;;1.70;99.90;;;;;;8326436;28;19925;-63
2021/12/02 16:51:26;;;;;;;;;;;1.60;99.90;;;;;;8320929;28;19946;-62
2021/12/02 16:55:27;;;;;;;;;;;1.90;99.90;;;;;;8328167;28;19924;-61
2021/12/02 16:59:27;;;;;;;;;;;1.90;99.90;;;;;;8329806;28;20015;-63
2021/12/02 17:03:29;;;;;;;;;;;1.90;99.90;;;;;;8318618;28;20051;-62
2021/12/02 17:07:29;;;;;;;;;;;1.90;99.90;;;;;;8336798;28;20275;-63
2021/12/02 17:11:30;;;;;;;;;;;1.80;99.90;;;;;;8324480;28;19924;-62
2021/12/02 17:15:32;;;;;;;;;;;1.90;99.90;;;;;;8327900;28;19913;-62
2021/12/02 17:19:32;;;;;;;;;;;2.10;99.90;;;;;;8295079;28;20360;-63
2021/12/02 17:23:33;;;;;;;;;;;1.90;99.90;;;;;;8320106;28;19913;-62
2021/12/02 17:27:33;;;;;;;;;;;1.90;99.90;;;;;;8333173;28;19975;-63
2021/12/02 17:31:34;;;;;;;;;;;2.00;99.90;;;;;;8326906;28;20295;-62
2021/12/02 17:35:35;;;;;;;;;;;1.80;99.90;;;;;;8326127;28;20641;-64
2021/12/02 17:39:36;;;;;;;;;;;1.80;99.90;;;;;;8319185;28;19924;-65
2021/12/02 17:43:37;;;;;;;;;;;1.80;99.90;;;;;;8334284;28;19975;-65
2021/12/02 17:47:37;;;;;;;;;;;1.90;99.90;;;;;;8337432;28;19917;-64
2021/12/02 17:51:39;;;;;;;;;;;1.90;99.90;;;;;;8331516;28;19921;-64
2021/12/02 18:00:19;;;;;;;;;;;1.80;99.90;;;;;;8317860;28;19939;-64
2021/12/02 18:04:19;;;;;;;;;;;1.80;99.90;;;;;;8333017;28;20000;-64
2021/12/02 18:08:20;;;;;;;;;;;1.90;99.90;;;;;;8340155;28;19917;-65
2021/12/02 18:12:21;;;;;;;;;;;1.90;99.90;;;;;;8332760;28;20016;-64
2021/12/02 18:16:21;;;;;;;;;;;1.80;99.90;;;;;;8314057;28;20295;-61
2021/12/02 18:20:22;;;;;;;;;;;1.80;99.90;;;;;;8305063;28;20421;-63
2021/12/02 18:24:23;;;;;;;;;;;1.70;99.90;;;;;;8310767;28;19925;-63
2021/12/02 18:28:24;;;;;;;;;;;1.80;99.90;;;;;;8324155;28;19967;-62
2021/12/02 18:32:24;;;;;;;;;;;1.80;99.90;;;;;;8323025;28;19921;-62
2021/12/02 18:36:26;;;;;;;;;;;1.60;99.90;;;;;;8305423;28;19921;-62
2021/12/02 18:40:27;;;;;;;;;;;1.60;99.90;;;;;;8318341;28;19940;-62
2021/12/02 18:44:28;;;;;;;;;;;1.50;99.90;;;;;;8303409;28;19914;-62
2021/12/02 18:48:29;;;;;;;;;;;1.50;99.90;;;;;;8321465;28;19917;-61
2021/12/02 18:52:29;;;;;;;;;;;1.40;99.90;;;;;;8317624;28;19924;-62
2021/12/02 18:56:30;;;;;;;;;;;1.50;99.90;;;;;;8319649;28;19917;-62
2021/12/02 19:00:31;;;;;;;;;;;1.50;99.90;;;;;;8319958;28;19975;-62
2021/12/02 19:04:32;;;;;;;;;;;1.40;99.90;;;;;;8319218;28;20299;-63
2021/12/02 19:08:47;;;;;;;;;;;1.30;99.90;;;;;;8317166;28;20642;-63
2021/12/02 19:30:06;;;;;;;;;;;1.60;99.90;;;;;;8321681;28;19920;-62
2021/12/02 19:34:06;;;;;;;;;;;1.50;99.90;;;;;;8318520;28;20391;-62
2021/12/02 19:38:07;;;;;;;;;;;1.50;99.90;;;;;;8321156;28;19924;-62
2021/12/02 19:42:07;;;;;;;;;;;1.40;99.90;;;;;;8309829;28;19957;-63
2021/12/02 19:46:08;;;;;;;;;;;1.40;99.90;;;;;;8321132;28;19962;-62
2021/12/02 19:50:09;;;;;;;;;;;1.30;99.90;;;;;;8322145;28;19964;-63
2021/12/02 19:54:10;;;;;;;;;;;1.40;99.90;;;;;;8320682;28;19925;-63
2021/12/02 19:58:10;;;;;;;;;;;1.50;99.90;;;;;;8312285;28;20422;-62
2021/12/02 20:02:11;;;;;;;;;;;1.50;99.90;;;;;;8320558;28;19971;-62
2021/12/02 20:06:12;;;;;;;;;;;1.40;99.90;;;;;;8320705;28;20297;-63
2021/12/02 20:10:15;;;;;;;;;;;1.40;99.90;;;;;;8319799;28;20020;-62
2021/12/02 20:14:16;;;;;;;;;;;1.30;99.90;;;;;;8321108;28;20303;-62
2021/12/02 20:18:20;;;;;;;;;;;1.30;99.90;;;;;;8337883;28;19913;-62
2021/12/02 20:22:20;;;;;;;;;;;1.30;99.90;;;;;;8320911;28;19917;-62
2021/12/02 20:26:22;;;;;;;;;;;1.20;99.90;;;;;;8322446;28;19963;-62
2021/12/02 20:30:23;;;;;;;;;;;1.10;99.90;;;;;;8322213;28;20378;-62
2021/12/02 20:34:24;;;;;;;;;;;1.20;99.90;;;;;;8336592;28;19917;-64
2021/12/02 20:38:24;;;;;;;;;;;1.10;99.90;;;;;;8335879;28;20007;-64
2021/12/02 20:42:25;;;;;;;;;;;1.00;99.90;;;;;;8337467;28;20298;-64
2021/12/02 20:46:28;;;;;;;;;;;1.00;99.90;;;;;;8328454;28;19921;-64
2021/12/02 20:50:29;;;;;;;;;;;1.10;99.90;;;;;;8333300;28;19986;-64
2021/12/02 20:54:31;;;;;;;;;;;1.00;99.90;;;;;;8328025;28;19913;-64
2021/12/02 20:58:31;;;;;;;;;;;1.00;99.90;;;;;;8328052;28;19914;-64
2021/12/02 21:02:33;;;;;;;;;;;1.00;99.90;;;;;;8324742;28;19952;-64
2021/12/02 21:06:33;;;;;;;;;;;1.00;99.90;;;;;;8327049;28;20108;-64
2021/12/02 21:10:34;;;;;;;;;;;1.00;99.90;;;;;;8324977;28;19953;-64
2021/12/02 21:14:37;;;;;;;;;;;1.00;99.90;;;;;;8316159;28;20470;-64
2021/12/02 21:18:40;;;;;;;;;;;1.10;99.90;;;;;;8324691;28;20398;-64
2021/12/02 21:22:41;;;;;;;;;;;0.90;99.90;;;;;;8326071;28;19936;-64
2021/12/02 21:26:42;;;;;;;;;;;0.80;99.90;;;;;;8326800;28;19948;-64
2021/12/02 21:30:42;;;;;;;;;;;0.90;99.90;;;;;;8326638;28;19917;-64
2021/12/02 21:34:47;;;;;;;;;;;0.80;99.90;;;;;;8338798;22;20714;-66
2021/12/02 21:38:48;;;;;;;;;;;0.70;99.90;;;;;;8339875;28;19924;-66
2021/12/02 21:42:49;;;;;;;;;;;0.70;99.90;;;;;;8348153;28;19921;-66
2021/12/02 21:46:50;;;;;;;;;;;0.50;99.90;;;;;;8336762;28;19983;-66
2021/12/02 21:50:51;;;;;;;;;;;0.40;99.90;;;;;;8350186;28;20282;-65
2021/12/02 21:54:52;;;;;;;;;;;0.40;99.90;;;;;;8351482;28;19920;-67
2021/12/02 21:58:55;;;;;;;;;;;0.40;99.90;;;;;;8328964;28;20383;-68
2021/12/02 22:02:56;;;;;;;;;;;0.50;99.90;;;;;;8362737;28;19971;-65
2021/12/02 22:06:57;;;;;;;;;;;0.50;99.90;;;;;;8363344;28;19939;-66
2021/12/02 22:10:58;;;;;;;;;;;0.50;99.90;;;;;;8362942;28;19962;-66
2021/12/02 22:14:58;;;;;;;;;;;0.80;99.90;;;;;;8354643;28;19909;-66
2021/12/02 22:18:59;;;;;;;;;;;0.70;99.90;;;;;;8363415;28;20293;-66
2021/12/02 22:23:00;;;;;;;;;;;0.50;99.90;;;;;;8362818;28;20444;-66
2021/12/02 22:27:01;;;;;;;;;;;0.60;99.90;;;;;;8362907;28;20382;-66
2021/12/02 22:31:03;;;;;;;;;;;0.50;99.90;;;;;;8362946;28;19915;-66
2021/12/02 22:35:05;;;;;;;;;;;0.60;99.90;;;;;;8362671;28;19963;-66
2021/12/02 22:39:06;;;;;;;;;;;0.60;99.90;;;;;;8344825;28;19916;-66
2021/12/02 22:43:07;;;;;;;;;;;0.60;99.90;;;;;;8353388;28;20003;-66
2021/12/02 22:47:08;;;;;;;;;;;0.70;99.90;;;;;;8362427;28;19917;-66
2021/12/02 22:51:10;;;;;;;;;;;0.50;99.90;;;;;;8343542;28;19915;-67
2021/12/02 22:55:12;;;;;;;;;;;0.60;99.90;;;;;;8331007;28;19932;-67
2021/12/02 22:59:13;;;;;;;;;;;0.50;99.90;;;;;;8329214;28;19924;-67
2021/12/02 23:03:16;;;;;;;;;;;0.80;99.90;;;;;;8328832;28;19920;-67
2021/12/02 23:07:18;;;;;;;;;;;0.60;99.90;;;;;;8310337;28;20410;-67
2021/12/02 23:11:19;;;;;;;;;;;0.50;99.90;;;;;;8336709;28;19909;-67
2021/12/02 23:15:21;;;;;;;;;;;0.70;99.90;;;;;;8337064;28;20003;-66
2021/12/02 23:19:23;;;;;;;;;;;0.80;99.90;;;;;;8361942;28;19916;-67
2021/12/02 23:23:24;;;;;;;;;;;0.80;99.90;;;;;;8361532;28;19909;-66
2021/12/02 23:27:42;;;;;;;;;;;0.70;99.90;;;;;;8361945;28;19912;-67
2021/12/02 23:31:43;;;;;;;;;;;0.70;99.90;;;;;;8343896;28;19915;-66
2021/12/02 23:35:44;;;;;;;;;;;0.60;99.90;;;;;;8361676;28;19917;-67
2021/12/02 23:39:44;;;;;;;;;;;0.50;99.90;;;;;;8359000;28;19991;-66
2021/12/02 23:43:45;;;;;;;;;;;0.50;99.90;;;;;;8351883;28;20394;-65
2021/12/02 23:47:46;;;;;;;;;;;0.30;99.90;;;;;;8361254;28;19920;-66
2021/12/02 23:51:46;;;;;;;;;;;0.30;99.90;;;;;;8360459;28;20397;-66
2021/12/02 23:55:47;;;;;;;;;;;0.30;99.90;;;;;;8361401;28;20471;-66
2021/12/02 23:59:47;;;;;;;;;;;0.30;99.90;;;;;;8360549;28;19915;-67
